Flight Track Log - Related Links

Times and Time Zones

All times are in EDT time to prevent confusion due to time zone crossing. See the DAL2211 flight status page for this flight to view local times or setup timezone preferences in your user account.

Time Position Orientation Groundspeed Altitude Reporting Facility
EDT Latitude Longitude Course Direction KTS MPH feet Rate Location/Type
Wed 06:11:27 AM 42.8758 -85.4450 180° South 214 246 2,800  Level Chicago Center
Wed 06:12:28 AM 42.8142 -85.4303 170° South 230 265 4,800 2,529 Climbing Chicago Center
Wed 06:13:00 AM 42.5820 -85.5000 180° South  Level FlightAware
Wed 06:13:28 AM 42.7453 -85.4314 181° South 244 281 7,900  Level Chicago Center
Wed 06:14:00 AM 42.4846 -85.5000 180° South  Level FlightAware
Wed 06:14:28 AM 42.6739 -85.4344 182° South 253 291 10,000  Level Chicago Center
Wed 06:15:00 AM 42.3871 -85.5000 180° South  Level FlightAware
Wed 06:15:29 AM 42.6011 -85.4375 182° South 257 296 10,800  Level Chicago Center
Wed 06:16:00 AM 42.2897 -85.5000 180° South  Level FlightAware
Wed 06:16:29 AM 42.5131 -85.4403 181° South 317 365 12,300  Level Chicago Center
Wed 06:17:30 AM 42.4239 -85.4425 181° South 324 373 15,100 2,331 Climbing Chicago Center
Wed 06:18:30 AM 42.3294 -85.4475 182° South 337 388 17,000 1,934 Climbing Chicago Center
Wed 06:19:31 AM 42.2306 -85.4489 181° South 353 406 19,000 1,934 Climbing Chicago Center
Wed 06:20:31 AM 42.1283 -85.4533 182° South 364 419 20,900 1,884 Climbing Chicago Center
Wed 06:21:32 AM 42.0239 -85.4567 181° South 369 425 22,800 1,587 Climbing Chicago Center
Wed 06:22:32 AM 41.9286 -85.4597 181° South 373 429 24,100 1,240 Climbing Chicago Center
Wed 06:23:33 AM 41.8208 -85.4639 182° South 385 443 25,300 1,339 Climbing Chicago Center
Wed 06:24:33 AM 41.7114 -85.4667 181° South 395 455 26,800 2,100 Climbing Chicago Center
Wed 06:25:33 AM 41.5911 -85.4728 182° South 392 451 29,500 2,579 Climbing Chicago Center
Wed 06:26:34 AM 41.5019 -85.4939 190° South 320 368 32,000 1,388 Climbing Chicago Center
Wed 06:27:34 AM 41.4133 -85.5131 189° South 322 371 32,300 298 Climbing Chicago Center
Wed 06:28:35 AM 41.3192 -85.5339 189° South 339 390 32,600 545 Climbing Chicago Center
Wed 06:29:35 AM 41.2217 -85.5558 190° South 351 404 33,400 1,438 Climbing Chicago Center
Wed 06:30:36 AM 41.1300 -85.5756 189° South 333 383 35,500 1,190 Climbing Chicago Center
Wed 06:31:36 AM 41.0447 -85.5953 190° South 315 362 35,800 248 Climbing Chicago Center
Wed 06:32:37 AM 40.9553 -85.6147 189° South 322 371 36,000 99 Climbing Chicago Center
Wed 06:33:37 AM 40.8644 -85.6350 190° South 327 376 36,000  Level Chicago Center
Wed 06:34:38 AM 40.7731 -85.6542 189° South 329 379 36,000 -99 Level Chicago Center
Wed 06:35:38 AM 40.6850 -85.6736 190° South 325 374 35,800 -595 Descending Chicago Center
Wed 06:36:39 AM 40.5925 -85.6931 189° South 307 353 34,800 -893 Descending Chicago Center
Wed 06:37:39 AM 40.5067 -85.7125 190° South 310 357 34,000 -787 Descending Chicago Center
Wed 06:39:42 AM 40.3258 -85.7506 189° South 324 373 32,400 -652 Descending Indianapolis Center
Wed 06:40:43 AM 40.2328 -85.7708 189° South 333 383 32,000 -198 Descending Indianapolis Center
Wed 06:41:43 AM 40.1375 -85.7903 189° South 342 394 32,000  Level Indianapolis Center
Wed 06:42:44 AM 40.0431 -85.8111 190° South 342 394 32,000  Level Indianapolis Center
Wed 06:43:45 AM 39.9494 -85.8311 189° South 342 394 32,000  Level Indianapolis Center
Wed 06:44:45 AM 39.8550 -85.8506 189° South 342 394 32,000  Level Indianapolis Center
Wed 06:45:46 AM 39.7611 -85.8697 189° South 342 394 32,000  Level Indianapolis Center
Wed 06:46:47 AM 39.6672 -85.8908 190° South 341 392 32,000  Level Indianapolis Center
Wed 06:47:48 AM 39.5736 -85.9108 189° South 341 392 32,000  Level Indianapolis Center
Wed 06:48:48 AM 39.4794 -85.9286 188° South 341 392 32,000  Level Indianapolis Center
Wed 06:49:49 AM 39.3856 -85.9492 190° South 341 392 32,000  Level Indianapolis Center
Wed 06:50:50 AM 39.2914 -85.9686 189° South 341 392 32,000  Level Indianapolis Center
Wed 06:51:51 AM 39.1972 -85.9886 189° South 341 392 32,000  Level Indianapolis Center
Wed 06:52:52 AM 39.1017 -86.0072 189° South 342 394 32,000  Level Indianapolis Center
Wed 06:53:52 AM 39.0069 -86.0269 189° South 342 394 32,000  Level Indianapolis Center
Wed 06:54:53 AM 38.8925 -86.0511 189° South 343 395 32,000  Level Indianapolis Center
Wed 06:55:54 AM 38.7975 -86.0697 189° South 343 395 32,000  Level Indianapolis Center
Wed 06:56:55 AM 38.7014 -86.0908 190° South 344 396 32,000  Level Indianapolis Center
Wed 06:57:56 AM 38.6050 -86.1097 189° South 344 396 32,000  Level Indianapolis Center
Wed 06:58:57 AM 38.5078 -86.1286 189° South 346 398 32,000  Level Indianapolis Center
Wed 06:59:57 AM 38.4092 -86.1494 189° South 352 405 32,000  Level Indianapolis Center
Wed 07:00:58 AM 38.3108 -86.1697 189° South 353 406 32,000  Level Indianapolis Center
Wed 07:01:59 AM 38.2117 -86.1889 189° South 354 407 32,000 -443 Level Indianapolis Center
Wed 07:03:00 AM 38.1125 -86.2083 189° South 354 407 31,100 -492 Descending Indianapolis Center
Wed 07:04:01 AM 38.0111 -86.2292 189° South 361 415 31,000 -49 Descending Indianapolis Center
Wed 07:05:02 AM 37.9100 -86.2497 189° South 361 415 31,000  Level Indianapolis Center
Wed 07:06:02 AM 37.8072 -86.2697 189° South 363 418 31,000  Level Indianapolis Center
Wed 07:07:03 AM 37.7047 -86.2903 189° South 364 419 31,000  Level Indianapolis Center
Wed 07:08:04 AM 37.6006 -86.3036 186° South 368 423 31,000  Level Indianapolis Center
Wed 07:09:05 AM 37.4942 -86.3056 181° South 372 428 31,000  Level Indianapolis Center
Wed 07:10:06 AM 37.3872 -86.3089 181° South 377 434 31,000  Level Indianapolis Center
Wed 07:10:50 AM 37.3158 -86.3131 183° South 378 435 31,000  Level Memphis Center
Wed 07:11:50 AM 37.2069 -86.3169 182° South 384 442 31,000  Level Memphis Center
Wed 07:12:51 AM 37.0989 -86.3214 182° South 384 442 31,000  Level Memphis Center
Wed 07:13:51 AM 36.9894 -86.3239 181° South 384 442 31,000  Level Memphis Center
Wed 07:14:52 AM 36.8806 -86.3292 182° South 385 443 31,000  Level Memphis Center
Wed 07:15:53 AM 36.7714 -86.3322 181° South 385 443 31,000 -198 Level Memphis Center
Wed 07:16:53 AM 36.6619 -86.3361 182° South 386 444 30,600 -694 Descending Memphis Center
Wed 07:17:54 AM 36.5531 -86.3392 181° South 386 444 29,600 -787 Descending Memphis Center
Wed 07:18:55 AM 36.4450 -86.3433 182° South 386 444 29,000 -295 Descending Memphis Center
Wed 07:19:56 AM 36.3369 -86.3475 182° South 385 443 29,000  Level Memphis Center
Wed 07:20:56 AM 36.2286 -86.3503 181° South 385 443 29,000  Level Memphis Center
Wed 07:21:57 AM 36.1208 -86.3547 182° South 385 443 29,000  Level Memphis Center
Wed 07:22:58 AM 36.0117 -86.3586 182° South 385 443 29,000  Level Memphis Center
Wed 07:23:59 AM 35.9031 -86.3619 181° South 385 443 29,000  Level Memphis Center
Wed 07:25:00 AM 35.7947 -86.3661 182° South 385 443 29,000  Level Memphis Center
Wed 07:26:00 AM 35.6858 -86.3228 162° South 407 468 29,000  Level Memphis Center
Wed 07:27:02 AM 35.5853 -86.2397 146° Southeast 423 487 29,000  Level Memphis Center
Wed 07:28:02 AM 35.4836 -86.1581 147° Southeast 426 490 29,000  Level Memphis Center
Wed 07:29:03 AM 35.3844 -86.0786 147° Southeast 426 490 29,000 -344 Level Memphis Center
Wed 07:30:04 AM 35.2850 -85.9997 147° Southeast 426 490 28,300 -836 Descending Memphis Center
Wed 07:31:05 AM 35.1864 -85.9219 147° Southeast 426 490 27,300 -836 Descending Memphis Center
Wed 07:32:06 AM 35.0889 -85.8439 147° Southeast 424 488 26,600 -787 Descending Memphis Center
Wed 07:33:07 AM 34.9903 -85.7644 147° Southeast 424 488 25,700 -934 Descending Memphis Center
Wed 07:34:08 AM 34.8922 -85.6881 147° Southeast 424 488 24,700 -836 Descending Memphis Center
Wed 07:35:09 AM 34.7778 -85.5983 147° Southeast 417 480 24,000 -443 Descending Memphis Center
Wed 07:36:10 AM 34.6811 -85.5219 147° Southeast 416 479 23,800 -590 Descending Memphis Center
Wed 07:37:11 AM 34.5806 -85.4444 148° Southeast 421 484 22,800 -906 Descending Memphis Center
Wed 07:38:29 AM 34.4511 -85.3461 148° Southeast 440 506 21,700 -1,391 Descending Atlanta Center
Wed 07:39:29 AM 34.3517 -85.2642 146° Southeast 440 506 19,600 -2,450 Descending Atlanta Center
Wed 07:40:29 AM 34.2544 -85.1897 148° Southeast 430 495 16,800 -2,350 Descending Atlanta Center
Wed 07:41:29 AM 34.1611 -85.1108 145° Southeast 419 482 14,900 -1,400 Descending Atlanta Center
Wed 07:42:29 AM 34.0931 -85.0272 134° Southeast 371 427 14,000 -450 Descending Atlanta Center
Wed 07:43:29 AM 34.0308 -84.9511 135° Southeast 327 376 14,000  Level Atlanta Center
Wed 07:44:29 AM 33.9544 -84.8528 133° Southeast 336 387 14,000  Level Atlanta Center
Wed 07:45:29 AM 33.8650 -84.7844 148° Southeast 373 429 14,000 -722 Level Atlanta Center
Wed 07:46:17 AM 33.7833 -84.7333 153° Southeast 377 434 12,700 -1,056 Descending Atlanta TRACON
Wed 07:47:17 AM 33.7000 -84.6833 153° Southeast 362 417 12,100 -316 Descending Atlanta TRACON
Wed 07:48:11 AM 33.6167 -84.6333 153° Southeast 362 417 12,100 -105 Level Atlanta TRACON
Wed 07:49:11 AM 33.5667 -84.5333 121° Southeast 335 386 11,900 -600 Descending Atlanta TRACON
Wed 07:50:11 AM 33.5333 -84.4500 116° Southeast 295 339 10,900 -952 Descending Atlanta TRACON
Wed 07:51:17 AM 33.5333 -84.3500 90° East 236 272 9,900 -1,619 Descending Atlanta TRACON
Wed 07:52:17 AM 33.5333 -84.2833 90° East 213 245 7,500 -2,350 Descending Atlanta TRACON
Wed 07:53:17 AM 33.5500 -84.2167 73° East 229 264 5,200 -1,700 Descending Atlanta TRACON
Wed 07:54:17 AM 33.6167 -84.2167 360° North 238 274 4,100 -950 Descending Atlanta TRACON
Wed 07:55:17 AM 33.6333 -84.2833 287° West 190 219 3,300 -900 Descending Atlanta TRACON
Wed 07:56:17 AM 33.6333 -84.3333 270° West 142 163 2,300 -850 Descending Atlanta TRACON
Wed 07:57:17 AM 33.6333 -84.3833 270° West 149 171 1,600 -579 Descending Atlanta TRACON
Wed 07:58:11 AM 33.6333 -84.4167 270° West 146 168 1,200 -444 Descending Atlanta TRACON

Login

Don't have an account? Register now (free) for customized features, flight alerts, and more!